sensor_id;sensor_type;location;lat;lon;timestamp;temperature;humidity
8910;DHT22;4490;49.072;8.804;2023-11-19T00:00:16;9.30;99.90
8910;DHT22;4490;49.072;8.804;2023-11-19T00:02:42;9.30;99.90
8910;DHT22;4490;49.072;8.804;2023-11-19T00:05:08;9.30;99.90
8910;DHT22;4490;49.072;8.804;2023-11-19T00:07:35;9.40;99.90
8910;DHT22;4490;49.072;8.804;2023-11-19T00:10:01;9.40;99.90
8910;DHT22;4490;49.072;8.804;2023-11-19T00:12:37;9.50;99.90
8910;DHT22;4490;49.072;8.804;2023-11-19T00:15:02;9.50;99.90
8910;DHT22;4490;49.072;8.804;2023-11-19T00:17:28;9.50;99.90
8910;DHT22;4490;49.072;8.804;2023-11-19T00:19:54;9.60;99.90
8910;DHT22;4490;49.072;8.804;2023-11-19T00:22:22;9.60;99.90
8910;DHT22;4490;49.072;8.804;2023-11-19T00:24:47;9.50;99.90
8910;DHT22;4490;49.072;8.804;2023-11-19T00:27:13;9.50;99.90
8910;DHT22;4490;49.072;8.804;2023-11-19T00:29:39;9.60;99.90
8910;DHT22;4490;49.072;8.804;2023-11-19T00:32:05;9.60;99.90
8910;DHT22;4490;49.072;8.804;2023-11-19T00:34:32;9.50;99.90
8910;DHT22;4490;49.072;8.804;2023-11-19T00:36:58;9.50;99.90
8910;DHT22;4490;49.072;8.804;2023-11-19T00:39:24;9.50;99.90
8910;DHT22;4490;49.072;8.804;2023-11-19T00:41:49;9.50;99.90
8910;DHT22;4490;49.072;8.804;2023-11-19T00:44:15;9.50;99.90
8910;DHT22;4490;49.072;8.804;2023-11-19T00:46:40;9.50;99.90
8910;DHT22;4490;49.072;8.804;2023-11-19T00:49:06;9.50;99.90
8910;DHT22;4490;49.072;8.804;2023-11-19T00:51:32;9.50;99.90
8910;DHT22;4490;49.072;8.804;2023-11-19T00:53:58;9.50;99.90
8910;DHT22;4490;49.072;8.804;2023-11-19T00:56:24;9.50;99.90
8910;DHT22;4490;49.072;8.804;2023-11-19T00:58:50;9.60;99.90
8910;DHT22;4490;49.072;8.804;2023-11-19T01:01:15;9.60;99.90
8910;DHT22;4490;49.072;8.804;2023-11-19T01:03:41;9.50;99.90
8910;DHT22;4490;49.072;8.804;2023-11-19T01:06:07;9.60;99.90
8910;DHT22;4490;49.072;8.804;2023-11-19T01:08:33;9.60;99.90
8910;DHT22;4490;49.072;8.804;2023-11-19T01:11:01;9.60;99.90
8910;DHT22;4490;49.072;8.804;2023-11-19T01:13:27;9.60;99.90
8910;DHT22;4490;49.072;8.804;2023-11-19T01:15:53;9.60;99.90
8910;DHT22;4490;49.072;8.804;2023-11-19T01:18:21;9.60;99.90
8910;DHT22;4490;49.072;8.804;2023-11-19T01:20:47;9.50;99.90
8910;DHT22;4490;49.072;8.804;2023-11-19T01:23:13;9.60;99.90
8910;DHT22;4490;49.072;8.804;2023-11-19T01:25:38;9.60;99.90
8910;DHT22;4490;49.072;8.804;2023-11-19T01:28:04;9.60;99.90
8910;DHT22;4490;49.072;8.804;2023-11-19T01:30:30;9.50;99.90
8910;DHT22;4490;49.072;8.804;2023-11-19T01:32:56;9.50;99.90
8910;DHT22;4490;49.072;8.804;2023-11-19T01:35:21;9.50;99.90
8910;DHT22;4490;49.072;8.804;2023-11-19T01:37:48;9.50;99.90
8910;DHT22;4490;49.072;8.804;2023-11-19T01:40:14;9.50;99.90
8910;DHT22;4490;49.072;8.804;2023-11-19T01:42:41;9.60;99.90
8910;DHT22;4490;49.072;8.804;2023-11-19T01:45:07;9.60;99.90
8910;DHT22;4490;49.072;8.804;2023-11-19T01:47:34;9.60;99.90
8910;DHT22;4490;49.072;8.804;2023-11-19T01:50:01;9.60;99.90
8910;DHT22;4490;49.072;8.804;2023-11-19T01:52:33;9.60;99.90
8910;DHT22;4490;49.072;8.804;2023-11-19T01:55:01;9.60;99.90
8910;DHT22;4490;49.072;8.804;2023-11-19T01:57:26;9.60;99.90
8910;DHT22;4490;49.072;8.804;2023-11-19T01:59:52;9.60;99.90
8910;DHT22;4490;49.072;8.804;2023-11-19T02:02:19;9.60;99.90
8910;DHT22;4490;49.072;8.804;2023-11-19T02:04:49;9.70;99.90
8910;DHT22;4490;49.072;8.804;2023-11-19T02:07:16;9.60;99.90
8910;DHT22;4490;49.072;8.804;2023-11-19T02:09:43;9.70;99.90
8910;DHT22;4490;49.072;8.804;2023-11-19T02:12:10;9.70;99.90
8910;DHT22;4490;49.072;8.804;2023-11-19T02:14:37;9.70;99.90
8910;DHT22;4490;49.072;8.804;2023-11-19T02:17:03;9.80;99.90
8910;DHT22;4490;49.072;8.804;2023-11-19T02:19:29;9.80;99.90
8910;DHT22;4490;49.072;8.804;2023-11-19T02:21:54;9.80;99.90
8910;DHT22;4490;49.072;8.804;2023-11-19T02:24:22;9.80;99.90
8910;DHT22;4490;49.072;8.804;2023-11-19T02:27:16;9.90;99.90
8910;DHT22;4490;49.072;8.804;2023-11-19T02:29:44;9.90;99.90
8910;DHT22;4490;49.072;8.804;2023-11-19T02:32:10;9.90;99.90
8910;DHT22;4490;49.072;8.804;2023-11-19T02:34:35;10.00;99.90
8910;DHT22;4490;49.072;8.804;2023-11-19T02:37:01;10.00;99.90
8910;DHT22;4490;49.072;8.804;2023-11-19T02:39:26;10.00;99.90
8910;DHT22;4490;49.072;8.804;2023-11-19T02:41:52;10.00;99.90
8910;DHT22;4490;49.072;8.804;2023-11-19T02:44:18;10.10;99.90
8910;DHT22;4490;49.072;8.804;2023-11-19T02:46:44;10.10;99.90
8910;DHT22;4490;49.072;8.804;2023-11-19T02:49:09;10.10;99.90
8910;DHT22;4490;49.072;8.804;2023-11-19T02:51:35;10.10;99.90
8910;DHT22;4490;49.072;8.804;2023-11-19T02:54:01;10.20;99.90
8910;DHT22;4490;49.072;8.804;2023-11-19T02:56:29;10.30;99.90
8910;DHT22;4490;49.072;8.804;2023-11-19T02:59:00;10.40;99.90
8910;DHT22;4490;49.072;8.804;2023-11-19T03:01:29;10.50;99.90
8910;DHT22;4490;49.072;8.804;2023-11-19T03:03:56;10.70;99.90
8910;DHT22;4490;49.072;8.804;2023-11-19T03:06:22;10.80;99.90
8910;DHT22;4490;49.072;8.804;2023-11-19T03:08:48;10.90;99.90
8910;DHT22;4490;49.072;8.804;2023-11-19T03:11:14;11.00;99.90
8910;DHT22;4490;49.072;8.804;2023-11-19T03:13:40;11.10;99.90
8910;DHT22;4490;49.072;8.804;2023-11-19T03:16:06;11.20;99.90
8910;DHT22;4490;49.072;8.804;2023-11-19T03:18:32;11.30;99.90
8910;DHT22;4490;49.072;8.804;2023-11-19T03:20:58;11.40;99.90
8910;DHT22;4490;49.072;8.804;2023-11-19T03:23:24;11.40;99.90
8910;DHT22;4490;49.072;8.804;2023-11-19T03:25:50;11.50;99.90
8910;DHT22;4490;49.072;8.804;2023-11-19T03:28:16;11.60;99.90
8910;DHT22;4490;49.072;8.804;2023-11-19T03:30:42;11.60;99.90
8910;DHT22;4490;49.072;8.804;2023-11-19T03:33:07;11.60;99.90
8910;DHT22;4490;49.072;8.804;2023-11-19T03:35:33;11.70;99.90
8910;DHT22;4490;49.072;8.804;2023-11-19T03:37:58;11.70;99.90
8910;DHT22;4490;49.072;8.804;2023-11-19T03:40:24;11.80;99.90
8910;DHT22;4490;49.072;8.804;2023-11-19T03:42:50;11.80;99.90
8910;DHT22;4490;49.072;8.804;2023-11-19T03:45:16;11.90;99.90
8910;DHT22;4490;49.072;8.804;2023-11-19T03:47:42;11.90;99.90
8910;DHT22;4490;49.072;8.804;2023-11-19T03:50:08;11.90;99.90
8910;DHT22;4490;49.072;8.804;2023-11-19T03:52:34;11.90;99.90
8910;DHT22;4490;49.072;8.804;2023-11-19T03:55:00;11.90;99.90
8910;DHT22;4490;49.072;8.804;2023-11-19T03:57:27;11.90;99.90
8910;DHT22;4490;49.072;8.804;2023-11-19T03:59:53;11.90;99.90
8910;DHT22;4490;49.072;8.804;2023-11-19T04:02:20;12.00;99.90
8910;DHT22;4490;49.072;8.804;2023-11-19T04:04:46;12.00;99.90
8910;DHT22;4490;49.072;8.804;2023-11-19T04:07:12;12.00;99.90
8910;DHT22;4490;49.072;8.804;2023-11-19T04:09:37;12.00;99.90
8910;DHT22;4490;49.072;8.804;2023-11-19T04:12:03;12.00;99.90
8910;DHT22;4490;49.072;8.804;2023-11-19T04:14:29;12.00;99.90
8910;DHT22;4490;49.072;8.804;2023-11-19T04:16:55;12.00;99.90
8910;DHT22;4490;49.072;8.804;2023-11-19T04:19:20;12.00;99.90
8910;DHT22;4490;49.072;8.804;2023-11-19T04:21:47;12.10;99.90
8910;DHT22;4490;49.072;8.804;2023-11-19T04:24:13;12.10;99.90
8910;DHT22;4490;49.072;8.804;2023-11-19T04:26:43;12.10;99.90
8910;DHT22;4490;49.072;8.804;2023-11-19T04:29:12;12.10;99.90
8910;DHT22;4490;49.072;8.804;2023-11-19T04:31:38;12.10;99.90
8910;DHT22;4490;49.072;8.804;2023-11-19T04:34:05;12.10;99.90
8910;DHT22;4490;49.072;8.804;2023-11-19T04:36:31;12.20;99.90
8910;DHT22;4490;49.072;8.804;2023-11-19T04:38:58;12.20;99.90
8910;DHT22;4490;49.072;8.804;2023-11-19T04:41:25;12.20;99.90
8910;DHT22;4490;49.072;8.804;2023-11-19T04:43:51;12.20;99.90
8910;DHT22;4490;49.072;8.804;2023-11-19T04:46:16;12.20;99.90
8910;DHT22;4490;49.072;8.804;2023-11-19T04:48:42;12.20;99.90
8910;DHT22;4490;49.072;8.804;2023-11-19T04:51:08;12.20;99.90
8910;DHT22;4490;49.072;8.804;2023-11-19T04:53:35;12.30;99.90
8910;DHT22;4490;49.072;8.804;2023-11-19T04:56:00;12.30;99.90
8910;DHT22;4490;49.072;8.804;2023-11-19T04:58:29;12.30;99.90
8910;DHT22;4490;49.072;8.804;2023-11-19T05:00:54;12.30;99.90
8910;DHT22;4490;49.072;8.804;2023-11-19T05:03:20;12.40;99.90
8910;DHT22;4490;49.072;8.804;2023-11-19T05:05:48;12.40;99.90
8910;DHT22;4490;49.072;8.804;2023-11-19T05:08:14;12.40;99.90
8910;DHT22;4490;49.072;8.804;2023-11-19T05:10:39;12.40;99.90
8910;DHT22;4490;49.072;8.804;2023-11-19T05:13:05;12.40;99.90
8910;DHT22;4490;49.072;8.804;2023-11-19T05:15:31;12.50;99.90
8910;DHT22;4490;49.072;8.804;2023-11-19T05:17:57;12.50;99.90
8910;DHT22;4490;49.072;8.804;2023-11-19T05:20:22;12.50;99.90
8910;DHT22;4490;49.072;8.804;2023-11-19T05:22:48;12.50;99.90
8910;DHT22;4490;49.072;8.804;2023-11-19T05:25:14;12.60;99.90
8910;DHT22;4490;49.072;8.804;2023-11-19T05:27:39;12.60;99.90
8910;DHT22;4490;49.072;8.804;2023-11-19T05:30:06;12.60;99.90
8910;DHT22;4490;49.072;8.804;2023-11-19T05:32:36;12.60;99.90
8910;DHT22;4490;49.072;8.804;2023-11-19T05:35:02;12.60;99.90
8910;DHT22;4490;49.072;8.804;2023-11-19T05:37:27;12.70;99.90
8910;DHT22;4490;49.072;8.804;2023-11-19T05:39:53;12.70;99.90
8910;DHT22;4490;49.072;8.804;2023-11-19T05:42:19;12.70;99.90
8910;DHT22;4490;49.072;8.804;2023-11-19T05:44:44;12.80;99.90
8910;DHT22;4490;49.072;8.804;2023-11-19T05:47:10;12.80;99.90
8910;DHT22;4490;49.072;8.804;2023-11-19T05:49:36;12.80;99.90
8910;DHT22;4490;49.072;8.804;2023-11-19T05:52:01;12.80;99.90
8910;DHT22;4490;49.072;8.804;2023-11-19T05:54:28;12.80;99.90
8910;DHT22;4490;49.072;8.804;2023-11-19T05:56:54;12.80;99.90
8910;DHT22;4490;49.072;8.804;2023-11-19T05:59:20;12.90;99.90
8910;DHT22;4490;49.072;8.804;2023-11-19T06:01:48;12.90;99.90
8910;DHT22;4490;49.072;8.804;2023-11-19T06:04:14;12.90;99.90
8910;DHT22;4490;49.072;8.804;2023-11-19T06:06:39;12.90;99.90
8910;DHT22;4490;49.072;8.804;2023-11-19T06:09:06;12.90;99.90
8910;DHT22;4490;49.072;8.804;2023-11-19T06:11:33;12.90;99.90
8910;DHT22;4490;49.072;8.804;2023-11-19T06:13:59;12.90;99.90
8910;DHT22;4490;49.072;8.804;2023-11-19T06:16:25;12.90;99.90
8910;DHT22;4490;49.072;8.804;2023-11-19T06:18:50;12.90;99.90
8910;DHT22;4490;49.072;8.804;2023-11-19T06:21:16;12.90;99.90
8910;DHT22;4490;49.072;8.804;2023-11-19T06:23:41;13.00;99.90
8910;DHT22;4490;49.072;8.804;2023-11-19T06:26:07;13.00;99.90
8910;DHT22;4490;49.072;8.804;2023-11-19T06:28:34;13.10;99.90
8910;DHT22;4490;49.072;8.804;2023-11-19T06:30:59;13.10;99.90
8910;DHT22;4490;49.072;8.804;2023-11-19T06:33:26;13.10;99.90
8910;DHT22;4490;49.072;8.804;2023-11-19T06:35:52;13.10;99.90
8910;DHT22;4490;49.072;8.804;2023-11-19T06:38:18;13.10;99.90
8910;DHT22;4490;49.072;8.804;2023-11-19T06:40:44;13.10;99.90
8910;DHT22;4490;49.072;8.804;2023-11-19T06:43:09;13.10;99.90
8910;DHT22;4490;49.072;8.804;2023-11-19T06:45:35;13.10;99.90
8910;DHT22;4490;49.072;8.804;2023-11-19T06:48:03;13.10;99.90
8910;DHT22;4490;49.072;8.804;2023-11-19T06:50:29;13.20;99.90
8910;DHT22;4490;49.072;8.804;2023-11-19T06:52:55;13.20;99.90
8910;DHT22;4490;49.072;8.804;2023-11-19T06:55:20;13.20;99.90
8910;DHT22;4490;49.072;8.804;2023-11-19T06:57:46;13.20;99.90
8910;DHT22;4490;49.072;8.804;2023-11-19T07:00:12;13.30;99.90
8910;DHT22;4490;49.072;8.804;2023-11-19T07:02:38;13.30;99.90
8910;DHT22;4490;49.072;8.804;2023-11-19T07:05:05;13.30;99.90
8910;DHT22;4490;49.072;8.804;2023-11-19T07:07:31;13.40;99.90
8910;DHT22;4490;49.072;8.804;2023-11-19T07:09:58;13.40;99.90
8910;DHT22;4490;49.072;8.804;2023-11-19T07:12:24;13.50;99.90
8910;DHT22;4490;49.072;8.804;2023-11-19T07:14:52;13.50;99.90
8910;DHT22;4490;49.072;8.804;2023-11-19T07:17:19;13.50;99.90
8910;DHT22;4490;49.072;8.804;2023-11-19T07:19:46;13.50;99.90
8910;DHT22;4490;49.072;8.804;2023-11-19T07:22:12;13.50;99.90
8910;DHT22;4490;49.072;8.804;2023-11-19T07:24:39;13.50;99.90
8910;DHT22;4490;49.072;8.804;2023-11-19T07:27:06;13.60;99.90
8910;DHT22;4490;49.072;8.804;2023-11-19T07:29:32;13.60;99.90
8910;DHT22;4490;49.072;8.804;2023-11-19T07:31:57;13.60;99.90
8910;DHT22;4490;49.072;8.804;2023-11-19T07:34:24;13.60;99.90
8910;DHT22;4490;49.072;8.804;2023-11-19T07:36:50;13.70;99.90
8910;DHT22;4490;49.072;8.804;2023-11-19T07:39:15;13.60;99.90
8910;DHT22;4490;49.072;8.804;2023-11-19T07:41:41;13.60;99.90
8910;DHT22;4490;49.072;8.804;2023-11-19T07:44:07;13.70;99.90
8910;DHT22;4490;49.072;8.804;2023-11-19T07:46:32;13.60;99.90
8910;DHT22;4490;49.072;8.804;2023-11-19T07:48:58;13.70;99.90
8910;DHT22;4490;49.072;8.804;2023-11-19T07:51:24;13.60;99.90
8910;DHT22;4490;49.072;8.804;2023-11-19T07:53:49;13.60;99.90
8910;DHT22;4490;49.072;8.804;2023-11-19T07:56:15;13.60;99.90
8910;DHT22;4490;49.072;8.804;2023-11-19T07:58:41;13.60;99.90
8910;DHT22;4490;49.072;8.804;2023-11-19T08:01:07;13.60;99.90
8910;DHT22;4490;49.072;8.804;2023-11-19T08:03:33;13.60;99.90
8910;DHT22;4490;49.072;8.804;2023-11-19T08:06:02;13.70;99.90
8910;DHT22;4490;49.072;8.804;2023-11-19T08:08:28;13.60;99.90
8910;DHT22;4490;49.072;8.804;2023-11-19T08:10:58;13.60;99.90
8910;DHT22;4490;49.072;8.804;2023-11-19T08:13:24;13.70;99.90
8910;DHT22;4490;49.072;8.804;2023-11-19T08:15:50;13.70;99.90
8910;DHT22;4490;49.072;8.804;2023-11-19T08:18:17;13.70;99.90
8910;DHT22;4490;49.072;8.804;2023-11-19T08:20:43;13.80;99.90
8910;DHT22;4490;49.072;8.804;2023-11-19T08:23:10;13.80;99.90
8910;DHT22;4490;49.072;8.804;2023-11-19T08:25:36;13.80;99.90
8910;DHT22;4490;49.072;8.804;2023-11-19T08:28:01;13.80;99.90
8910;DHT22;4490;49.072;8.804;2023-11-19T08:30:29;13.80;99.90
8910;DHT22;4490;49.072;8.804;2023-11-19T08:32:55;13.90;99.90
8910;DHT22;4490;49.072;8.804;2023-11-19T08:35:20;13.80;99.90
8910;DHT22;4490;49.072;8.804;2023-11-19T08:37:46;13.90;99.90
8910;DHT22;4490;49.072;8.804;2023-11-19T08:40:12;13.90;99.90
8910;DHT22;4490;49.072;8.804;2023-11-19T08:42:40;13.90;99.90
8910;DHT22;4490;49.072;8.804;2023-11-19T08:45:07;13.90;99.90
8910;DHT22;4490;49.072;8.804;2023-11-19T08:47:32;13.90;99.90
8910;DHT22;4490;49.072;8.804;2023-11-19T08:49:58;13.90;99.90
8910;DHT22;4490;49.072;8.804;2023-11-19T08:52:23;14.00;99.90
8910;DHT22;4490;49.072;8.804;2023-11-19T08:54:49;14.00;99.90
8910;DHT22;4490;49.072;8.804;2023-11-19T08:57:15;14.10;99.90
8910;DHT22;4490;49.072;8.804;2023-11-19T08:59:40;14.10;99.90
8910;DHT22;4490;49.072;8.804;2023-11-19T09:02:06;14.10;99.90
8910;DHT22;4490;49.072;8.804;2023-11-19T09:04:32;14.20;99.90
8910;DHT22;4490;49.072;8.804;2023-11-19T09:06:59;14.20;99.90
8910;DHT22;4490;49.072;8.804;2023-11-19T09:09:24;14.30;99.90
8910;DHT22;4490;49.072;8.804;2023-11-19T09:11:50;14.30;99.90
8910;DHT22;4490;49.072;8.804;2023-11-19T09:14:16;14.30;99.90
8910;DHT22;4490;49.072;8.804;2023-11-19T09:16:43;14.40;99.90
8910;DHT22;4490;49.072;8.804;2023-11-19T09:19:09;14.40;99.90
8910;DHT22;4490;49.072;8.804;2023-11-19T09:21:34;14.40;99.90
8910;DHT22;4490;49.072;8.804;2023-11-19T09:24:04;14.40;99.90
8910;DHT22;4490;49.072;8.804;2023-11-19T09:26:32;14.40;99.90
8910;DHT22;4490;49.072;8.804;2023-11-19T09:28:57;14.40;99.90
8910;DHT22;4490;49.072;8.804;2023-11-19T09:31:23;14.50;99.90
8910;DHT22;4490;49.072;8.804;2023-11-19T09:33:49;14.60;99.90
8910;DHT22;4490;49.072;8.804;2023-11-19T09:36:15;14.60;99.90
8910;DHT22;4490;49.072;8.804;2023-11-19T09:38:42;14.70;99.90
8910;DHT22;4490;49.072;8.804;2023-11-19T09:41:10;14.70;99.90
8910;DHT22;4490;49.072;8.804;2023-11-19T09:43:39;14.80;99.90
8910;DHT22;4490;49.072;8.804;2023-11-19T09:46:06;14.80;99.90
8910;DHT22;4490;49.072;8.804;2023-11-19T09:48:35;14.80;99.90
8910;DHT22;4490;49.072;8.804;2023-11-19T09:51:01;14.80;99.90
8910;DHT22;4490;49.072;8.804;2023-11-19T09:53:27;14.80;99.90
8910;DHT22;4490;49.072;8.804;2023-11-19T09:55:54;14.80;99.90
8910;DHT22;4490;49.072;8.804;2023-11-19T09:58:19;14.80;99.90
8910;DHT22;4490;49.072;8.804;2023-11-19T10:00:45;14.90;99.90
8910;DHT22;4490;49.072;8.804;2023-11-19T10:03:11;14.90;99.90
8910;DHT22;4490;49.072;8.804;2023-11-19T10:05:38;14.90;99.90
8910;DHT22;4490;49.072;8.804;2023-11-19T10:08:06;14.90;99.90
8910;DHT22;4490;49.072;8.804;2023-11-19T10:10:32;14.90;99.90
8910;DHT22;4490;49.072;8.804;2023-11-19T10:12:57;14.90;99.90
8910;DHT22;4490;49.072;8.804;2023-11-19T10:15:24;14.90;99.90
8910;DHT22;4490;49.072;8.804;2023-11-19T10:17:54;14.90;99.90
8910;DHT22;4490;49.072;8.804;2023-11-19T10:20:20;15.00;99.90
8910;DHT22;4490;49.072;8.804;2023-11-19T10:22:45;15.00;99.90
8910;DHT22;4490;49.072;8.804;2023-11-19T10:25:25;15.00;99.90
8910;DHT22;4490;49.072;8.804;2023-11-19T10:27:55;15.10;99.90
8910;DHT22;4490;49.072;8.804;2023-11-19T10:30:22;15.10;99.90
8910;DHT22;4490;49.072;8.804;2023-11-19T10:33:09;15.10;99.90
8910;DHT22;4490;49.072;8.804;2023-11-19T10:35:50;15.20;99.90
8910;DHT22;4490;49.072;8.804;2023-11-19T10:38:18;15.20;99.90
8910;DHT22;4490;49.072;8.804;2023-11-19T10:40:44;15.30;99.90
8910;DHT22;4490;49.072;8.804;2023-11-19T10:43:10;15.30;99.90
8910;DHT22;4490;49.072;8.804;2023-11-19T10:45:36;15.40;99.90
8910;DHT22;4490;49.072;8.804;2023-11-19T10:48:03;15.50;99.90
8910;DHT22;4490;49.072;8.804;2023-11-19T10:50:39;15.50;99.90
8910;DHT22;4490;49.072;8.804;2023-11-19T10:53:06;15.60;99.90
8910;DHT22;4490;49.072;8.804;2023-11-19T10:55:34;15.70;99.90
8910;DHT22;4490;49.072;8.804;2023-11-19T10:58:04;15.70;99.90
8910;DHT22;4490;49.072;8.804;2023-11-19T11:00:42;15.80;99.90
8910;DHT22;4490;49.072;8.804;2023-11-19T11:05:41;15.80;99.90
8910;DHT22;4490;49.072;8.804;2023-11-19T11:08:07;15.80;99.90
8910;DHT22;4490;49.072;8.804;2023-11-19T11:10:40;15.90;99.90
8910;DHT22;4490;49.072;8.804;2023-11-19T11:13:07;15.90;99.90
8910;DHT22;4490;49.072;8.804;2023-11-19T11:15:34;15.90;99.90
8910;DHT22;4490;49.072;8.804;2023-11-19T11:18:02;15.80;99.90
8910;DHT22;4490;49.072;8.804;2023-11-19T11:20:31;15.90;99.90
8910;DHT22;4490;49.072;8.804;2023-11-19T11:28:56;15.80;99.90
8910;DHT22;4490;49.072;8.804;2023-11-19T11:31:37;15.90;99.90
8910;DHT22;4490;49.072;8.804;2023-11-19T11:39:35;15.90;99.90
8910;DHT22;4490;49.072;8.804;2023-11-19T11:45:05;15.80;99.90
8910;DHT22;4490;49.072;8.804;2023-11-19T11:50:18;15.70;99.90
8910;DHT22;4490;49.072;8.804;2023-11-19T11:55:35;15.60;99.90
8910;DHT22;4490;49.072;8.804;2023-11-19T11:58:07;15.60;99.90
8910;DHT22;4490;49.072;8.804;2023-11-19T12:00:39;15.60;99.90
8910;DHT22;4490;49.072;8.804;2023-11-19T12:03:07;15.70;99.90
8910;DHT22;4490;49.072;8.804;2023-11-19T12:05:43;15.70;99.90
8910;DHT22;4490;49.072;8.804;2023-11-19T12:08:10;15.70;99.90
8910;DHT22;4490;49.072;8.804;2023-11-19T12:10:44;15.80;99.90
8910;DHT22;4490;49.072;8.804;2023-11-19T12:13:10;15.90;99.90
8910;DHT22;4490;49.072;8.804;2023-11-19T12:18:31;16.00;99.90
8910;DHT22;4490;49.072;8.804;2023-11-19T12:20:58;16.00;99.90
8910;DHT22;4490;49.072;8.804;2023-11-19T12:23:26;16.10;99.90
8910;DHT22;4490;49.072;8.804;2023-11-19T12:25:52;16.10;99.90
8910;DHT22;4490;49.072;8.804;2023-11-19T12:28:18;16.20;99.90
8910;DHT22;4490;49.072;8.804;2023-11-19T12:30:44;16.20;99.90
8910;DHT22;4490;49.072;8.804;2023-11-19T12:33:11;16.30;99.90
8910;DHT22;4490;49.072;8.804;2023-11-19T12:35:44;16.40;99.90
8910;DHT22;4490;49.072;8.804;2023-11-19T12:38:21;16.40;99.90
8910;DHT22;4490;49.072;8.804;2023-11-19T12:40:47;16.40;99.90
8910;DHT22;4490;49.072;8.804;2023-11-19T12:43:21;16.40;99.90
8910;DHT22;4490;49.072;8.804;2023-11-19T12:45:50;16.40;99.90
8910;DHT22;4490;49.072;8.804;2023-11-19T12:48:15;16.30;99.90
8910;DHT22;4490;49.072;8.804;2023-11-19T12:50:54;16.30;99.90
8910;DHT22;4490;49.072;8.804;2023-11-19T12:53:22;16.40;99.90
8910;DHT22;4490;49.072;8.804;2023-11-19T12:55:48;16.40;99.90
8910;DHT22;4490;49.072;8.804;2023-11-19T12:58:35;16.40;99.90
8910;DHT22;4490;49.072;8.804;2023-11-19T13:01:07;16.50;99.90
8910;DHT22;4490;49.072;8.804;2023-11-19T13:03:35;16.40;99.90
8910;DHT22;4490;49.072;8.804;2023-11-19T13:06:11;16.40;99.90
8910;DHT22;4490;49.072;8.804;2023-11-19T13:08:47;16.40;99.90
8910;DHT22;4490;49.072;8.804;2023-11-19T13:11:32;16.40;99.90
8910;DHT22;4490;49.072;8.804;2023-11-19T13:14:03;16.40;99.90
8910;DHT22;4490;49.072;8.804;2023-11-19T13:16:36;16.50;99.90
8910;DHT22;4490;49.072;8.804;2023-11-19T13:19:02;16.60;99.90
8910;DHT22;4490;49.072;8.804;2023-11-19T13:21:28;16.80;99.90
8910;DHT22;4490;49.072;8.804;2023-11-19T13:23:55;17.00;99.90
8910;DHT22;4490;49.072;8.804;2023-11-19T13:26:21;17.20;99.90
8910;DHT22;4490;49.072;8.804;2023-11-19T13:28:47;17.40;97.60
8910;DHT22;4490;49.072;8.804;2023-11-19T13:31:13;17.30;95.60
8910;DHT22;4490;49.072;8.804;2023-11-19T13:33:39;17.20;95.10
8910;DHT22;4490;49.072;8.804;2023-11-19T13:36:05;17.20;94.80
8910;DHT22;4490;49.072;8.804;2023-11-19T13:38:35;17.00;94.00
8910;DHT22;4490;49.072;8.804;2023-11-19T13:41:03;16.90;94.40
8910;DHT22;4490;49.072;8.804;2023-11-19T13:43:30;16.80;94.30
8910;DHT22;4490;49.072;8.804;2023-11-19T13:45:56;16.70;94.60
8910;DHT22;4490;49.072;8.804;2023-11-19T13:48:23;16.80;94.90
8910;DHT22;4490;49.072;8.804;2023-11-19T13:50:50;16.90;94.40
8910;DHT22;4490;49.072;8.804;2023-11-19T13:53:16;17.10;94.80
8910;DHT22;4490;49.072;8.804;2023-11-19T13:55:42;17.30;94.10
8910;DHT22;4490;49.072;8.804;2023-11-19T13:58:08;17.60;94.00
8910;DHT22;4490;49.072;8.804;2023-11-19T14:00:34;17.80;92.50
8910;DHT22;4490;49.072;8.804;2023-11-19T14:03:00;18.10;91.80
8910;DHT22;4490;49.072;8.804;2023-11-19T14:05:25;18.40;91.30
8910;DHT22;4490;49.072;8.804;2023-11-19T14:07:52;18.70;90.60
8910;DHT22;4490;49.072;8.804;2023-11-19T14:10:19;18.90;89.30
8910;DHT22;4490;49.072;8.804;2023-11-19T14:12:44;18.90;86.70
8910;DHT22;4490;49.072;8.804;2023-11-19T14:15:11;18.80;85.50
8910;DHT22;4490;49.072;8.804;2023-11-19T14:17:38;18.70;84.80
8910;DHT22;4490;49.072;8.804;2023-11-19T14:20:05;18.60;84.80
8910;DHT22;4490;49.072;8.804;2023-11-19T14:22:49;18.50;85.30
8910;DHT22;4490;49.072;8.804;2023-11-19T14:25:15;18.40;84.70
8910;DHT22;4490;49.072;8.804;2023-11-19T14:27:42;18.20;85.50
8910;DHT22;4490;49.072;8.804;2023-11-19T14:30:12;17.90;85.20
8910;DHT22;4490;49.072;8.804;2023-11-19T14:32:42;17.70;85.50
8910;DHT22;4490;49.072;8.804;2023-11-19T14:35:09;17.60;85.80
8910;DHT22;4490;49.072;8.804;2023-11-19T14:37:35;17.40;86.40
8910;DHT22;4490;49.072;8.804;2023-11-19T14:40:01;17.20;86.60
8910;DHT22;4490;49.072;8.804;2023-11-19T14:42:31;17.10;87.00
8910;DHT22;4490;49.072;8.804;2023-11-19T14:44:57;16.90;87.20
8910;DHT22;4490;49.072;8.804;2023-11-19T14:47:23;16.80;87.80
8910;DHT22;4490;49.072;8.804;2023-11-19T14:49:49;16.70;88.50
8910;DHT22;4490;49.072;8.804;2023-11-19T14:52:14;16.60;88.30
8910;DHT22;4490;49.072;8.804;2023-11-19T14:54:40;16.50;88.90
8910;DHT22;4490;49.072;8.804;2023-11-19T14:57:06;16.40;89.30
8910;DHT22;4490;49.072;8.804;2023-11-19T14:59:34;16.30;89.50
8910;DHT22;4490;49.072;8.804;2023-11-19T15:01:59;16.30;90.00
8910;DHT22;4490;49.072;8.804;2023-11-19T15:04:26;16.40;90.40
8910;DHT22;4490;49.072;8.804;2023-11-19T15:06:52;16.50;90.50
8910;DHT22;4490;49.072;8.804;2023-11-19T15:09:17;16.50;90.40
8910;DHT22;4490;49.072;8.804;2023-11-19T15:11:47;16.50;90.40
8910;DHT22;4490;49.072;8.804;2023-11-19T15:14:16;16.50;90.60
8910;DHT22;4490;49.072;8.804;2023-11-19T15:16:46;16.40;90.90
8910;DHT22;4490;49.072;8.804;2023-11-19T15:19:15;16.30;91.20
8910;DHT22;4490;49.072;8.804;2023-11-19T15:21:44;16.30;91.60
8910;DHT22;4490;49.072;8.804;2023-11-19T15:24:10;16.20;91.90
8910;DHT22;4490;49.072;8.804;2023-11-19T15:26:36;16.10;92.30
8910;DHT22;4490;49.072;8.804;2023-11-19T15:29:03;16.10;92.60
8910;DHT22;4490;49.072;8.804;2023-11-19T15:31:29;16.00;92.90
8910;DHT22;4490;49.072;8.804;2023-11-19T15:33:55;16.00;93.40
8910;DHT22;4490;49.072;8.804;2023-11-19T15:36:21;15.90;93.60
8910;DHT22;4490;49.072;8.804;2023-11-19T15:38:47;15.90;93.90
8910;DHT22;4490;49.072;8.804;2023-11-19T15:41:13;15.90;94.10
8910;DHT22;4490;49.072;8.804;2023-11-19T15:43:39;15.80;94.20
8910;DHT22;4490;49.072;8.804;2023-11-19T15:46:08;15.80;93.40
8910;DHT22;4490;49.072;8.804;2023-11-19T15:48:34;15.80;93.30
8910;DHT22;4490;49.072;8.804;2023-11-19T15:51:00;15.70;93.40
8910;DHT22;4490;49.072;8.804;2023-11-19T15:53:27;15.70;93.20
8910;DHT22;4490;49.072;8.804;2023-11-19T15:55:53;15.60;92.90
8910;DHT22;4490;49.072;8.804;2023-11-19T15:58:19;15.60;92.90
8910;DHT22;4490;49.072;8.804;2023-11-19T16:00:45;15.50;92.70
8910;DHT22;4490;49.072;8.804;2023-11-19T16:03:14;15.50;92.80
8910;DHT22;4490;49.072;8.804;2023-11-19T16:05:40;15.50;92.70
8910;DHT22;4490;49.072;8.804;2023-11-19T16:08:05;15.50;92.80
8910;DHT22;4490;49.072;8.804;2023-11-19T16:10:33;15.40;92.70
8910;DHT22;4490;49.072;8.804;2023-11-19T16:12:58;15.40;92.50
8910;DHT22;4490;49.072;8.804;2023-11-19T16:15:24;15.40;92.60
8910;DHT22;4490;49.072;8.804;2023-11-19T16:17:50;15.40;92.50
8910;DHT22;4490;49.072;8.804;2023-11-19T16:20:15;15.40;92.40
8910;DHT22;4490;49.072;8.804;2023-11-19T16:22:41;15.30;92.20
8910;DHT22;4490;49.072;8.804;2023-11-19T16:25:10;15.30;92.30
8910;DHT22;4490;49.072;8.804;2023-11-19T16:27:35;15.30;92.20